createdAt,value
2023-05-23T00:01:49.750Z,60.86
2023-05-23T00:04:19.039Z,61.09
2023-05-23T00:06:50.806Z,60.75
2023-05-23T00:09:21.950Z,61.21
2023-05-23T00:11:50.683Z,61.40
2023-05-23T00:14:19.509Z,61.28
2023-05-23T00:16:49.704Z,60.79
2023-05-23T00:19:18.813Z,61.57
2023-05-23T00:21:49.583Z,61.27
2023-05-23T00:24:19.019Z,61.01
2023-05-23T00:26:48.900Z,61.14
2023-05-23T00:29:17.825Z,60.88
2023-05-23T00:31:47.545Z,61.62
2023-05-23T00:34:18.132Z,60.82
2023-05-23T00:36:48.159Z,61.19
2023-05-23T00:39:20.810Z,60.75
2023-05-23T00:41:53.151Z,60.67
2023-05-23T00:44:22.832Z,60.86
2023-05-23T00:46:54.989Z,61.16
2023-05-23T00:49:24.087Z,60.64
2023-05-23T00:51:54.295Z,60.85
2023-05-23T00:54:28.685Z,61.05
2023-05-23T00:56:58.736Z,61.06
2023-05-23T00:59:27.728Z,60.97
2023-05-23T01:01:58.131Z,61.02
2023-05-23T01:04:28.641Z,61.03
2023-05-23T01:06:57.788Z,60.72
2023-05-23T01:09:28.669Z,61.11
2023-05-23T01:12:08.947Z,61.13
2023-05-23T01:14:44.228Z,60.98
2023-05-23T01:17:18.509Z,61.08
2023-05-23T01:20:13.107Z,61.19
2023-05-23T01:23:01.497Z,61.03
2023-05-23T01:25:44.296Z,60.87
2023-05-23T01:28:18.649Z,60.90
2023-05-23T01:30:48.433Z,60.46
2023-05-23T01:33:19.522Z,60.29
2023-05-23T01:35:49.856Z,60.62
2023-05-23T01:38:18.122Z,59.92
2023-05-23T01:40:46.430Z,59.87
2023-05-23T01:43:16.786Z,59.83
2023-05-23T01:45:45.309Z,59.37
2023-05-23T01:48:16.441Z,59.26
2023-05-23T01:50:46.995Z,59.55
2023-05-23T01:53:19.375Z,59.24
2023-05-23T01:55:48.413Z,59.39
2023-05-23T01:58:18.607Z,59.08
2023-05-23T02:00:47.845Z,59.11
2023-05-23T02:03:16.403Z,59.35
2023-05-23T02:05:45.328Z,59.13
2023-05-23T02:08:13.546Z,59.42
2023-05-23T02:10:42.159Z,59.35
2023-05-23T02:13:10.692Z,59.29
2023-05-23T02:15:40.673Z,59.00
2023-05-23T02:18:09.533Z,59.19
2023-05-23T02:20:38.157Z,59.08
2023-05-23T02:23:06.681Z,58.97
2023-05-23T02:25:35.145Z,59.04
2023-05-23T02:28:03.377Z,58.87
2023-05-23T02:30:31.885Z,58.87
2023-05-23T02:33:06.716Z,58.82
2023-05-23T02:35:35.720Z,59.10
2023-05-23T02:38:03.946Z,58.79
2023-05-23T02:40:32.638Z,58.84
2023-05-23T02:43:01.108Z,58.50
2023-05-23T02:45:29.629Z,58.55
2023-05-23T02:47:58.364Z,58.72
2023-05-23T02:50:28.599Z,58.54
2023-05-23T02:52:56.712Z,58.45
2023-05-23T02:55:25.879Z,58.46
2023-05-23T02:57:54.507Z,57.76
2023-05-23T03:00:23.298Z,58.23
2023-05-23T03:02:52.045Z,57.74
2023-05-23T03:05:20.706Z,57.41
2023-05-23T03:07:52.133Z,57.63
2023-05-23T03:10:20.923Z,57.42
2023-05-23T03:12:49.081Z,57.10
2023-05-23T03:15:17.871Z,56.98
2023-05-23T03:17:46.116Z,57.28
2023-05-23T03:20:15.146Z,57.16
2023-05-23T03:22:45.868Z,56.50
2023-05-23T03:25:17.734Z,56.20
2023-05-23T03:27:45.854Z,56.23
2023-05-23T03:30:14.910Z,56.74
2023-05-23T03:32:43.239Z,56.79
2023-05-23T03:35:13.031Z,57.00
2023-05-23T03:37:41.584Z,57.93
2023-05-23T03:40:11.215Z,58.79
2023-05-23T03:42:41.769Z,58.54
2023-05-23T03:45:10.166Z,58.39
2023-05-23T03:47:38.419Z,57.68
2023-05-23T03:50:07.527Z,58.07
2023-05-23T03:52:35.779Z,59.75
2023-05-23T03:55:04.133Z,60.07
2023-05-23T03:57:32.519Z,60.22
2023-05-23T04:00:02.628Z,58.26
2023-05-23T04:02:31.553Z,57.67
2023-05-23T04:05:00.760Z,56.08
2023-05-23T04:07:29.509Z,54.77
2023-05-23T04:09:57.726Z,54.29
2023-05-23T04:12:26.041Z,53.08
2023-05-23T04:14:54.824Z,52.50
2023-05-23T04:17:24.582Z,50.88
2023-05-23T04:19:53.835Z,50.41
2023-05-23T04:22:22.173Z,49.34
2023-05-23T04:24:50.411Z,49.64
2023-05-23T04:27:18.607Z,49.17
2023-05-23T04:29:46.923Z,49.17
2023-05-23T04:32:16.904Z,49.40
2023-05-23T04:34:46.827Z,48.59
2023-05-23T04:37:17.530Z,49.75
2023-05-23T04:39:46.501Z,49.14
2023-05-23T04:42:15.203Z,49.00
2023-05-23T04:44:44.316Z,49.05
2023-05-23T04:47:12.600Z,48.67
2023-05-23T04:49:40.883Z,48.51
2023-05-23T04:52:10.970Z,48.27
2023-05-23T04:54:45.178Z,48.37
2023-05-23T04:57:13.966Z,48.37
2023-05-23T04:59:42.755Z,49.06
2023-05-23T05:02:11.156Z,48.34
2023-05-23T05:04:39.831Z,49.00
2023-05-23T05:07:08.679Z,48.16
2023-05-23T05:09:39.015Z,48.13
2023-05-23T05:12:07.916Z,47.86
2023-05-23T05:14:36.201Z,48.11
2023-05-23T05:17:04.741Z,48.30
2023-05-23T05:19:33.214Z,47.71
2023-05-23T05:22:01.555Z,48.34
2023-05-23T05:24:29.913Z,48.33
2023-05-23T05:26:59.583Z,48.16
2023-05-23T05:29:28.960Z,47.95
2023-05-23T05:31:57.912Z,48.12
2023-05-23T05:34:26.969Z,47.97
2023-05-23T05:36:56.806Z,47.43
2023-05-23T05:39:26.887Z,47.78
2023-05-23T05:41:55.038Z,48.05
2023-05-23T05:44:24.697Z,47.88
2023-05-23T05:46:53.300Z,46.98
2023-05-23T05:49:21.697Z,46.72
2023-05-23T05:51:50.642Z,47.31
2023-05-23T05:54:19.481Z,47.24
2023-05-23T05:56:48.647Z,46.63
2023-05-23T05:59:17.027Z,45.79
2023-05-23T06:01:47.506Z,46.87
2023-05-23T06:04:16.114Z,46.40
2023-05-23T06:06:44.878Z,44.91
2023-05-23T06:09:13.100Z,45.46
2023-05-23T06:11:41.489Z,45.41
2023-05-23T06:14:09.952Z,45.30
2023-05-23T06:16:38.939Z,44.69
2023-05-23T06:19:09.457Z,44.16
2023-05-23T06:21:37.619Z,43.57
2023-05-23T06:24:06.632Z,43.42
2023-05-23T06:26:35.373Z,44.45
2023-05-23T06:29:03.517Z,43.01
2023-05-23T06:31:31.740Z,43.38
2023-05-23T06:34:00.542Z,42.31
2023-05-23T06:36:31.992Z,40.40
2023-05-23T06:39:00.529Z,41.00
2023-05-23T06:41:28.891Z,40.78
2023-05-23T06:43:57.153Z,41.68
2023-05-23T06:46:25.946Z,40.69
2023-05-23T06:49:02.986Z,41.27
2023-05-23T06:51:43.786Z,39.64
2023-05-23T06:54:12.151Z,39.61
2023-05-23T06:56:40.547Z,39.20
2023-05-23T06:59:08.859Z,39.93
2023-05-23T07:01:37.204Z,40.56
2023-05-23T07:04:05.609Z,39.97
2023-05-23T07:06:35.741Z,39.75
2023-05-23T07:09:05.900Z,40.15
2023-05-23T07:11:35.524Z,39.53
2023-05-23T07:14:04.437Z,39.96
2023-05-23T07:16:32.755Z,40.97
2023-05-23T07:19:02.638Z,41.45
2023-05-23T07:21:31.092Z,39.79
2023-05-23T07:24:00.175Z,40.15
2023-05-23T07:26:29.846Z,38.73
2023-05-23T07:28:59.163Z,39.61
2023-05-23T07:31:27.503Z,39.57
2023-05-23T07:33:56.984Z,38.97
2023-05-23T07:36:26.204Z,38.52
2023-05-23T07:38:54.512Z,39.06
2023-05-23T07:41:22.895Z,36.41
2023-05-23T07:43:52.583Z,37.65
2023-05-23T07:46:22.995Z,36.54
2023-05-23T07:48:51.332Z,36.76
2023-05-23T07:51:21.480Z,37.03
2023-05-23T07:53:50.703Z,36.47
2023-05-23T07:56:18.923Z,36.80
2023-05-23T07:58:47.118Z,36.52
2023-05-23T08:01:16.920Z,35.65
2023-05-23T08:03:45.244Z,36.36
2023-05-23T08:06:14.344Z,36.82
2023-05-23T08:08:43.948Z,36.92
2023-05-23T08:11:12.566Z,37.09
2023-05-23T08:13:41.059Z,36.83
2023-05-23T08:16:09.354Z,37.06
2023-05-23T08:18:39.160Z,37.19
2023-05-23T08:21:07.577Z,37.51
2023-05-23T08:23:35.888Z,37.54
2023-05-23T08:26:04.707Z,37.06
2023-05-23T08:28:34.843Z,36.82
2023-05-23T08:31:03.621Z,35.86
2023-05-23T08:33:32.034Z,37.83
2023-05-23T08:36:03.440Z,37.77
2023-05-23T08:38:32.052Z,37.35
2023-05-23T08:41:03.231Z,37.42
2023-05-23T08:43:31.597Z,37.57
2023-05-23T08:46:00.473Z,37.66
2023-05-23T08:48:29.716Z,37.23
2023-05-23T08:51:00.218Z,37.47
2023-05-23T08:53:32.552Z,37.75
2023-05-23T08:56:02.900Z,37.22
2023-05-23T08:58:34.870Z,37.49
2023-05-23T09:01:03.625Z,36.91
2023-05-23T09:03:33.236Z,37.64
2023-05-23T09:06:01.886Z,37.17
2023-05-23T09:08:32.101Z,35.61
2023-05-23T09:11:02.856Z,36.69
2023-05-23T09:13:31.368Z,35.99
2023-05-23T09:16:06.916Z,34.58
2023-05-23T09:18:36.914Z,34.70
2023-05-23T09:21:05.405Z,33.76
2023-05-23T09:23:36.524Z,34.01
2023-05-23T09:26:05.666Z,32.49
2023-05-23T09:28:35.103Z,33.09
2023-05-23T09:31:04.982Z,33.31
2023-05-23T09:33:44.834Z,32.62
2023-05-23T09:36:13.590Z,32.90
2023-05-23T09:38:45.392Z,33.28
2023-05-23T09:41:14.351Z,32.03
2023-05-23T09:43:51.316Z,32.79
2023-05-23T09:46:23.213Z,32.42
2023-05-23T09:48:53.874Z,32.51
2023-05-23T09:51:24.384Z,32.99
2023-05-23T09:53:54.457Z,32.43
2023-05-23T09:56:24.295Z,32.85
2023-05-23T09:58:53.160Z,32.54
2023-05-23T10:01:22.340Z,33.06
2023-05-23T10:03:51.857Z,33.13
2023-05-23T10:06:27.217Z,32.44
2023-05-23T10:09:02.232Z,31.78
2023-05-23T10:12:09.891Z,32.90
2023-05-23T10:14:45.357Z,32.33
2023-05-23T10:17:18.585Z,31.59
2023-05-23T10:19:55.157Z,31.10
2023-05-23T10:22:23.940Z,30.61
2023-05-23T10:24:54.993Z,31.89
2023-05-23T10:27:23.942Z,31.86
2023-05-23T10:29:53.038Z,31.13
2023-05-23T10:32:22.240Z,31.37
2023-05-23T10:34:57.934Z,31.83
2023-05-23T10:37:32.984Z,31.03
2023-05-23T10:40:08.648Z,30.97
2023-05-23T10:42:47.760Z,30.35
2023-05-23T10:45:16.913Z,30.90
2023-05-23T10:47:45.259Z,31.32
2023-05-23T10:50:17.815Z,30.42
2023-05-23T10:52:46.588Z,31.45
2023-05-23T10:55:17.984Z,30.48
2023-05-23T10:57:47.343Z,31.14
2023-05-23T11:00:17.391Z,30.85
2023-05-23T11:02:55.825Z,30.46
2023-05-23T11:05:28.291Z,30.11
2023-05-23T11:08:10.427Z,29.36
2023-05-23T11:10:57.536Z,29.12
2023-05-23T11:13:26.113Z,28.14
2023-05-23T11:15:54.777Z,27.04
2023-05-23T11:18:25.678Z,27.41
2023-05-23T11:20:55.468Z,26.96
2023-05-23T11:23:24.221Z,25.46
2023-05-23T11:25:54.089Z,26.86
2023-05-23T11:28:24.146Z,26.36
2023-05-23T11:30:52.568Z,26.55
2023-05-23T11:33:21.377Z,26.77
2023-05-23T11:35:52.027Z,26.37
2023-05-23T11:38:20.931Z,26.56
2023-05-23T11:40:50.393Z,25.75
2023-05-23T11:43:19.928Z,25.56
2023-05-23T11:45:50.268Z,24.46
2023-05-23T11:48:18.968Z,25.39
2023-05-23T11:50:50.319Z,25.64
2023-05-23T11:53:21.637Z,25.55
2023-05-23T11:55:53.224Z,24.66
2023-05-23T11:58:22.484Z,25.89
2023-05-23T12:00:55.233Z,25.77
2023-05-23T12:03:24.035Z,25.28
2023-05-23T12:05:52.425Z,25.48
2023-05-23T12:08:20.923Z,25.20
2023-05-23T12:10:54.329Z,22.92
2023-05-23T12:13:26.552Z,23.85
2023-05-23T12:16:04.863Z,24.20
2023-05-23T12:18:35.951Z,26.01
2023-05-23T12:21:06.209Z,26.23
2023-05-23T12:23:35.850Z,24.87
2023-05-23T12:26:10.240Z,24.95
2023-05-23T12:28:40.120Z,25.13
2023-05-23T12:31:14.156Z,24.94
2023-05-23T12:33:44.156Z,25.21
2023-05-23T12:36:14.111Z,24.71
2023-05-23T12:38:45.549Z,24.63
2023-05-23T12:41:19.731Z,25.23
2023-05-23T12:43:53.158Z,25.60
2023-05-23T12:46:23.698Z,26.10
2023-05-23T12:48:52.881Z,26.35
2023-05-23T12:51:22.127Z,25.84
2023-05-23T12:53:50.425Z,26.23
2023-05-23T12:56:18.641Z,26.25
2023-05-23T12:58:46.904Z,25.52
2023-05-23T13:01:16.060Z,25.11
2023-05-23T13:03:46.180Z,25.80
2023-05-23T13:06:14.431Z,26.03
2023-05-23T13:08:43.077Z,25.22
2023-05-23T13:11:11.630Z,25.93
2023-05-23T13:13:40.631Z,25.67
2023-05-23T13:16:09.634Z,26.73
2023-05-23T13:18:38.589Z,26.89
2023-05-23T13:21:08.582Z,26.44
2023-05-23T13:23:39.003Z,26.60
2023-05-23T13:26:08.107Z,25.62
2023-05-23T13:28:36.428Z,25.59
2023-05-23T13:31:05.330Z,26.25
2023-05-23T13:33:33.908Z,25.67
2023-05-23T13:36:02.530Z,25.93
2023-05-23T13:38:32.460Z,26.62
2023-05-23T13:41:01.127Z,25.10
2023-05-23T13:43:29.532Z,25.40
2023-05-23T13:45:57.795Z,25.07
2023-05-23T13:48:26.147Z,26.02
2023-05-23T13:50:55.417Z,24.93
2023-05-23T13:53:23.813Z,25.34
2023-05-23T13:55:53.604Z,26.50
2023-05-23T13:58:22.049Z,25.74
2023-05-23T14:00:50.286Z,26.28
2023-05-23T14:03:19.434Z,25.21
2023-05-23T14:05:47.708Z,25.05
2023-05-23T14:08:16.014Z,24.72
2023-05-23T14:10:45.775Z,24.42
2023-05-23T14:13:15.686Z,24.84
2023-05-23T14:15:44.032Z,24.98
2023-05-23T14:18:12.496Z,24.84
2023-05-23T14:20:41.028Z,24.63
2023-05-23T14:23:09.223Z,24.66
2023-05-23T14:25:38.029Z,25.04
2023-05-23T14:28:06.221Z,25.39
2023-05-23T14:30:36.086Z,25.61
2023-05-23T14:33:04.323Z,25.67
2023-05-23T14:35:34.366Z,25.60
2023-05-23T14:38:02.522Z,26.08
2023-05-23T14:40:30.853Z,26.43
2023-05-23T14:42:59.223Z,26.98
2023-05-23T14:45:27.451Z,27.16
2023-05-23T14:47:57.535Z,27.26
2023-05-23T14:50:26.633Z,27.19
2023-05-23T14:52:58.231Z,27.53
2023-05-23T14:55:26.591Z,28.02
2023-05-23T14:57:55.020Z,27.59
2023-05-23T15:00:23.511Z,27.49
2023-05-23T15:02:52.644Z,27.00
2023-05-23T15:05:22.377Z,27.83
2023-05-23T15:07:51.243Z,27.02
2023-05-23T15:10:19.888Z,27.37
2023-05-23T15:12:48.428Z,27.72
2023-05-23T15:15:23.008Z,27.90
2023-05-23T15:17:52.457Z,27.12
2023-05-23T15:20:22.436Z,27.32
2023-05-23T15:22:51.721Z,26.47
2023-05-23T15:25:29.719Z,27.54
2023-05-23T15:28:02.391Z,27.18
2023-05-23T15:30:30.546Z,27.41
2023-05-23T15:33:01.791Z,27.07
2023-05-23T15:35:32.885Z,26.66
2023-05-23T15:38:01.003Z,26.15
2023-05-23T15:40:29.148Z,25.87
2023-05-23T15:42:57.963Z,26.12
2023-05-23T15:45:26.621Z,25.62
2023-05-23T15:48:04.380Z,26.06
2023-05-23T15:50:34.022Z,25.97
2023-05-23T15:53:02.560Z,26.41
2023-05-23T15:55:30.786Z,26.65
2023-05-23T15:57:59.344Z,26.86
2023-05-23T16:00:28.216Z,26.34
2023-05-23T16:02:57.820Z,26.75
2023-05-23T16:05:26.009Z,27.43
2023-05-23T16:07:56.121Z,26.55
2023-05-23T16:10:24.777Z,26.52
2023-05-23T16:12:53.430Z,25.92
2023-05-23T16:15:21.747Z,26.40
2023-05-23T16:17:50.482Z,25.79
2023-05-23T16:20:18.867Z,26.77
2023-05-23T16:22:47.970Z,26.30
2023-05-23T16:25:17.638Z,26.19
2023-05-23T16:27:46.150Z,26.98
2023-05-23T16:30:15.102Z,26.95
2023-05-23T16:32:43.375Z,26.93
2023-05-23T16:35:12.225Z,27.77
2023-05-23T16:37:41.918Z,28.10
2023-05-23T16:40:10.929Z,28.08
2023-05-23T16:42:40.959Z,28.63
2023-05-23T16:45:09.954Z,28.52
2023-05-23T16:47:38.232Z,28.82
2023-05-23T16:50:08.447Z,29.31
2023-05-23T16:52:39.828Z,29.18
2023-05-23T16:55:09.035Z,29.51
2023-05-23T16:57:37.660Z,28.98
2023-05-23T17:00:09.387Z,29.04
2023-05-23T17:02:38.227Z,29.05
2023-05-23T17:05:07.300Z,28.75
2023-05-23T17:07:36.587Z,28.21
2023-05-23T17:10:04.962Z,27.92
2023-05-23T17:12:33.721Z,28.40
2023-05-23T17:15:01.925Z,28.53
2023-05-23T17:17:31.693Z,28.71
2023-05-23T17:20:00.314Z,29.18
2023-05-23T17:22:28.511Z,29.27
2023-05-23T17:24:56.798Z,29.50
2023-05-23T17:27:25.104Z,29.81
2023-05-23T17:29:53.418Z,30.07
2023-05-23T17:32:22.061Z,29.94
2023-05-23T17:34:52.489Z,30.38
2023-05-23T17:37:21.299Z,30.91
2023-05-23T17:39:51.106Z,30.96
2023-05-23T17:42:19.398Z,31.26
2023-05-23T17:44:48.035Z,32.40
2023-05-23T17:47:18.306Z,32.84
2023-05-23T17:49:46.584Z,32.33
2023-05-23T17:52:34.883Z,32.39
2023-05-23T17:55:03.751Z,32.55
2023-05-23T17:57:32.278Z,33.04
2023-05-23T18:00:00.631Z,33.66
2023-05-23T18:02:28.927Z,33.67
2023-05-23T18:04:57.569Z,34.11
2023-05-23T18:07:36.174Z,34.10
2023-05-23T18:10:05.192Z,34.80
2023-05-23T18:12:33.611Z,35.60
2023-05-23T18:15:01.971Z,35.49
2023-05-23T18:17:30.536Z,36.14
2023-05-23T18:19:58.705Z,36.67
2023-05-23T18:22:38.760Z,37.31
2023-05-23T18:25:09.456Z,37.72
2023-05-23T18:27:37.564Z,38.01
2023-05-23T18:30:06.607Z,38.02
2023-05-23T18:32:34.825Z,38.11
2023-05-23T18:35:03.895Z,38.49
2023-05-23T18:37:32.554Z,38.89
2023-05-23T18:40:00.878Z,39.37
2023-05-23T18:42:32.097Z,39.47
2023-05-23T18:45:00.860Z,39.72
2023-05-23T18:47:29.086Z,39.34
2023-05-23T18:49:58.587Z,39.66
2023-05-23T18:52:26.929Z,40.19
2023-05-23T18:54:55.211Z,39.82
2023-05-23T18:57:24.485Z,40.44
2023-05-23T18:59:54.135Z,41.06
2023-05-23T19:02:22.860Z,41.12
2023-05-23T19:04:52.987Z,41.06
2023-05-23T19:07:21.939Z,42.04
2023-05-23T19:09:50.133Z,41.76
2023-05-23T19:12:18.963Z,41.99
2023-05-23T19:14:47.705Z,42.51
2023-05-23T19:17:17.651Z,42.59
2023-05-23T19:19:45.936Z,42.30
2023-05-23T19:22:14.756Z,42.40
2023-05-23T19:24:43.682Z,42.51
2023-05-23T19:27:11.987Z,42.76
2023-05-23T19:29:40.739Z,43.22
2023-05-23T19:32:09.624Z,43.34
2023-05-23T19:34:39.618Z,43.31
2023-05-23T19:37:09.911Z,44.09
2023-05-23T19:39:45.630Z,43.46
2023-05-23T19:42:13.879Z,45.66
2023-05-23T19:44:42.070Z,47.04
2023-05-23T19:47:10.228Z,47.13
2023-05-23T19:49:39.861Z,47.39
2023-05-23T19:52:07.981Z,47.64
2023-05-23T19:54:36.155Z,48.67
2023-05-23T19:57:05.409Z,48.70
2023-05-23T19:59:34.096Z,49.88
2023-05-23T20:02:02.319Z,50.04
2023-05-23T20:04:30.938Z,51.07
2023-05-23T20:07:00.746Z,50.59
2023-05-23T20:09:28.917Z,50.72
2023-05-23T20:11:57.079Z,49.79
2023-05-23T20:14:25.863Z,49.63
2023-05-23T20:16:54.971Z,50.80
2023-05-23T20:19:23.346Z,51.87
2023-05-23T20:21:51.530Z,52.10
2023-05-23T20:24:21.194Z,52.23
2023-05-23T20:26:49.396Z,53.27
2023-05-23T20:29:17.932Z,53.67
2023-05-23T20:31:46.421Z,53.49
2023-05-23T20:34:14.831Z,54.52
2023-05-23T20:36:44.005Z,55.93
2023-05-23T20:39:13.006Z,55.27
2023-05-23T20:41:43.759Z,56.07
2023-05-23T20:44:14.115Z,55.40
2023-05-23T20:46:42.769Z,54.64
2023-05-23T20:49:11.648Z,56.59
2023-05-23T20:51:40.404Z,57.43
2023-05-23T20:54:09.723Z,57.94
2023-05-23T20:56:37.899Z,59.02
2023-05-23T20:59:08.244Z,58.50
2023-05-23T21:01:37.106Z,59.82
2023-05-23T21:04:05.440Z,59.91
2023-05-23T21:06:34.313Z,60.38
2023-05-23T21:09:02.559Z,61.99
2023-05-23T21:11:30.746Z,61.75
2023-05-23T21:13:58.982Z,63.12
2023-05-23T21:16:31.228Z,62.16
2023-05-23T21:19:00.842Z,63.28
2023-05-23T21:21:29.602Z,64.28
2023-05-23T21:23:57.756Z,63.55
2023-05-23T21:26:26.102Z,65.53
2023-05-23T21:28:54.228Z,64.91
2023-05-23T21:31:33.273Z,64.57
2023-05-23T21:34:23.446Z,65.93
2023-05-23T21:36:54.433Z,66.19
2023-05-23T21:39:22.755Z,65.40
2023-05-23T21:41:51.131Z,66.29
2023-05-23T21:44:20.429Z,68.18
2023-05-23T21:46:48.662Z,68.17
2023-05-23T21:49:18.877Z,67.55
2023-05-23T21:51:47.176Z,68.20
2023-05-23T21:54:15.558Z,68.65
2023-05-23T21:56:44.320Z,69.03
2023-05-23T21:59:12.816Z,68.53
2023-05-23T22:01:41.164Z,69.46
2023-05-23T22:04:09.489Z,70.45
2023-05-23T22:06:39.601Z,71.65
2023-05-23T22:09:11.713Z,71.87
2023-05-23T22:11:40.046Z,73.16
2023-05-23T22:14:08.721Z,72.94
2023-05-23T22:16:40.648Z,73.23
2023-05-23T22:19:12.438Z,73.64
2023-05-23T22:21:42.150Z,74.70
2023-05-23T22:24:10.585Z,74.31
2023-05-23T22:26:39.191Z,74.39
2023-05-23T22:29:07.627Z,73.81
2023-05-23T22:31:35.876Z,74.04
2023-05-23T22:34:04.485Z,75.18
2023-05-23T22:36:34.560Z,75.69
2023-05-23T22:39:05.709Z,76.48
2023-05-23T22:41:34.623Z,76.16
2023-05-23T22:44:02.852Z,75.74
2023-05-23T22:46:31.142Z,76.99
2023-05-23T22:49:00.466Z,77.10
2023-05-23T22:51:29.432Z,79.31
2023-05-23T22:53:57.561Z,78.22
2023-05-23T22:56:27.257Z,78.75
2023-05-23T22:58:55.723Z,78.11
2023-05-23T23:01:24.194Z,78.80
2023-05-23T23:03:52.790Z,79.38
2023-05-23T23:06:21.504Z,79.88
2023-05-23T23:08:50.286Z,79.57
2023-05-23T23:11:18.517Z,79.41
2023-05-23T23:13:48.150Z,79.39
2023-05-23T23:16:19.367Z,80.68
2023-05-23T23:18:49.185Z,81.43
2023-05-23T23:21:17.639Z,82.23
2023-05-23T23:23:45.842Z,80.81
2023-05-23T23:26:14.026Z,82.08
2023-05-23T23:28:42.181Z,81.59
2023-05-23T23:31:12.279Z,82.14
2023-05-23T23:33:40.564Z,81.75
2023-05-23T23:36:09.844Z,81.92
2023-05-23T23:38:39.040Z,82.26
2023-05-23T23:41:07.317Z,82.83
2023-05-23T23:43:35.542Z,82.19
2023-05-23T23:46:04.220Z,82.33
2023-05-23T23:48:33.938Z,82.44
2023-05-23T23:51:02.568Z,83.10
2023-05-23T23:53:31.804Z,83.86
2023-05-23T23:56:00.054Z,83.38
2023-05-23T23:58:28.484Z,83.66
